sensor_id;sensor_type;location;lat;lon;timestamp;P1;durP1;ratioP1;P2;durP2;ratioP2
3249;SDS011;1637;42.020;23.992;2023-02-02T00:01:12;91.13;;;40.37;;
3249;SDS011;1637;42.020;23.992;2023-02-02T00:03:39;88.60;;;37.67;;
3249;SDS011;1637;42.020;23.992;2023-02-02T00:06:06;99.50;;;38.23;;
3249;SDS011;1637;42.020;23.992;2023-02-02T00:08:34;112.10;;;40.03;;
3249;SDS011;1637;42.020;23.992;2023-02-02T00:11:02;99.67;;;40.30;;
3249;SDS011;1637;42.020;23.992;2023-02-02T00:13:29;94.63;;;41.57;;
3249;SDS011;1637;42.020;23.992;2023-02-02T00:15:56;97.10;;;39.20;;
3249;SDS011;1637;42.020;23.992;2023-02-02T00:18:23;96.10;;;38.17;;
3249;SDS011;1637;42.020;23.992;2023-02-02T00:20:49;97.10;;;39.17;;
3249;SDS011;1637;42.020;23.992;2023-02-02T00:23:17;94.33;;;39.53;;
3249;SDS011;1637;42.020;23.992;2023-02-02T00:25:47;109.23;;;43.30;;
3249;SDS011;1637;42.020;23.992;2023-02-02T00:28:15;121.83;;;47.53;;
3249;SDS011;1637;42.020;23.992;2023-02-02T00:30:42;110.57;;;43.77;;
3249;SDS011;1637;42.020;23.992;2023-02-02T00:33:09;120.77;;;42.63;;
3249;SDS011;1637;42.020;23.992;2023-02-02T00:35:38;81.10;;;37.50;;
3249;SDS011;1637;42.020;23.992;2023-02-02T00:38:06;165.30;;;63.60;;
3249;SDS011;1637;42.020;23.992;2023-02-02T00:40:33;136.30;;;56.73;;
3249;SDS011;1637;42.020;23.992;2023-02-02T00:43:01;100.67;;;42.20;;
3249;SDS011;1637;42.020;23.992;2023-02-02T00:45:28;98.33;;;37.73;;
3249;SDS011;1637;42.020;23.992;2023-02-02T00:47:54;93.63;;;37.27;;
3249;SDS011;1637;42.020;23.992;2023-02-02T00:50:21;80.60;;;32.57;;
3249;SDS011;1637;42.020;23.992;2023-02-02T00:52:48;72.70;;;29.73;;
3249;SDS011;1637;42.020;23.992;2023-02-02T00:55:16;73.00;;;29.53;;
3249;SDS011;1637;42.020;23.992;2023-02-02T00:57:43;78.50;;;30.90;;
3249;SDS011;1637;42.020;23.992;2023-02-02T01:00:12;68.07;;;24.27;;
3249;SDS011;1637;42.020;23.992;2023-02-02T01:02:41;73.57;;;25.63;;
3249;SDS011;1637;42.020;23.992;2023-02-02T01:05:08;66.23;;;25.13;;
3249;SDS011;1637;42.020;23.992;2023-02-02T01:07:36;66.60;;;24.47;;
3249;SDS011;1637;42.020;23.992;2023-02-02T01:10:03;59.73;;;22.80;;
3249;SDS011;1637;42.020;23.992;2023-02-02T01:12:30;56.47;;;19.97;;
3249;SDS011;1637;42.020;23.992;2023-02-02T01:14:57;84.33;;;30.00;;
3249;SDS011;1637;42.020;23.992;2023-02-02T01:17:25;64.40;;;26.80;;
3249;SDS011;1637;42.020;23.992;2023-02-02T01:19:52;86.20;;;35.33;;
3249;SDS011;1637;42.020;23.992;2023-02-02T01:22:18;77.80;;;29.40;;
3249;SDS011;1637;42.020;23.992;2023-02-02T01:24:45;75.70;;;26.00;;
3249;SDS011;1637;42.020;23.992;2023-02-02T01:27:12;72.57;;;24.87;;
3249;SDS011;1637;42.020;23.992;2023-02-02T01:29:39;64.93;;;24.90;;
3249;SDS011;1637;42.020;23.992;2023-02-02T01:32:06;55.83;;;22.50;;
3249;SDS011;1637;42.020;23.992;2023-02-02T01:34:34;39.07;;;17.20;;
3249;SDS011;1637;42.020;23.992;2023-02-02T01:37:04;47.43;;;18.20;;
3249;SDS011;1637;42.020;23.992;2023-02-02T01:39:31;42.27;;;15.03;;
3249;SDS011;1637;42.020;23.992;2023-02-02T01:41:58;27.80;;;11.53;;
3249;SDS011;1637;42.020;23.992;2023-02-02T01:47:28;27.70;;;10.87;;
3249;SDS011;1637;42.020;23.992;2023-02-02T01:49:59;22.27;;;10.13;;
3249;SDS011;1637;42.020;23.992;2023-02-02T01:52:26;28.90;;;11.30;;
3249;SDS011;1637;42.020;23.992;2023-02-02T01:54:56;23.33;;;10.03;;
3249;SDS011;1637;42.020;23.992;2023-02-02T01:57:31;27.90;;;12.13;;
3249;SDS011;1637;42.020;23.992;2023-02-02T02:00:02;33.93;;;12.40;;
3249;SDS011;1637;42.020;23.992;2023-02-02T02:02:32;33.67;;;12.77;;
3249;SDS011;1637;42.020;23.992;2023-02-02T02:05:02;35.80;;;17.33;;
3249;SDS011;1637;42.020;23.992;2023-02-02T02:07:30;41.07;;;17.00;;
3249;SDS011;1637;42.020;23.992;2023-02-02T02:09:57;55.73;;;22.23;;
3249;SDS011;1637;42.020;23.992;2023-02-02T02:12:24;57.43;;;20.17;;
3249;SDS011;1637;42.020;23.992;2023-02-02T02:14:51;44.63;;;20.83;;
3249;SDS011;1637;42.020;23.992;2023-02-02T02:17:40;45.87;;;21.87;;
3249;SDS011;1637;42.020;23.992;2023-02-02T02:20:31;50.30;;;23.33;;
3249;SDS011;1637;42.020;23.992;2023-02-02T02:23:43;52.20;;;22.63;;
3249;SDS011;1637;42.020;23.992;2023-02-02T02:26:55;56.67;;;25.30;;
3249;SDS011;1637;42.020;23.992;2023-02-02T02:29:39;60.03;;;27.80;;
3249;SDS011;1637;42.020;23.992;2023-02-02T02:32:26;56.43;;;24.57;;
3249;SDS011;1637;42.020;23.992;2023-02-02T02:35:01;57.43;;;24.97;;
3249;SDS011;1637;42.020;23.992;2023-02-02T02:37:36;39.50;;;17.63;;
3249;SDS011;1637;42.020;23.992;2023-02-02T02:40:10;42.50;;;20.00;;
3249;SDS011;1637;42.020;23.992;2023-02-02T02:42:44;43.80;;;18.37;;
3249;SDS011;1637;42.020;23.992;2023-02-02T02:45:15;49.53;;;21.37;;
3249;SDS011;1637;42.020;23.992;2023-02-02T02:47:44;52.70;;;22.13;;
3249;SDS011;1637;42.020;23.992;2023-02-02T02:50:13;56.47;;;24.10;;
3249;SDS011;1637;42.020;23.992;2023-02-02T02:52:40;58.60;;;21.50;;
3249;SDS011;1637;42.020;23.992;2023-02-02T02:55:08;66.60;;;25.40;;
3249;SDS011;1637;42.020;23.992;2023-02-02T02:57:42;61.83;;;25.80;;
3249;SDS011;1637;42.020;23.992;2023-02-02T03:00:22;54.23;;;24.03;;
3249;SDS011;1637;42.020;23.992;2023-02-02T03:03:04;27.20;;;13.13;;
3249;SDS011;1637;42.020;23.992;2023-02-02T03:05:41;29.23;;;13.17;;
3249;SDS011;1637;42.020;23.992;2023-02-02T03:08:16;15.17;;;6.10;;
3249;SDS011;1637;42.020;23.992;2023-02-02T03:10:48;18.73;;;7.57;;
3249;SDS011;1637;42.020;23.992;2023-02-02T03:13:16;29.67;;;11.87;;
3249;SDS011;1637;42.020;23.992;2023-02-02T03:15:43;42.87;;;18.83;;
3249;SDS011;1637;42.020;23.992;2023-02-02T03:18:12;11.10;;;3.43;;
3249;SDS011;1637;42.020;23.992;2023-02-02T03:20:41;11.60;;;4.40;;
3249;SDS011;1637;42.020;23.992;2023-02-02T03:23:09;52.60;;;18.00;;
3249;SDS011;1637;42.020;23.992;2023-02-02T03:25:36;43.73;;;18.40;;
3249;SDS011;1637;42.020;23.992;2023-02-02T03:28:03;31.10;;;15.23;;
3249;SDS011;1637;42.020;23.992;2023-02-02T03:30:31;35.40;;;13.53;;
3249;SDS011;1637;42.020;23.992;2023-02-02T03:32:58;17.33;;;6.67;;
3249;SDS011;1637;42.020;23.992;2023-02-02T03:35:27;8.67;;;4.00;;
3249;SDS011;1637;42.020;23.992;2023-02-02T03:37:54;7.80;;;3.30;;
3249;SDS011;1637;42.020;23.992;2023-02-02T03:40:20;5.67;;;3.37;;
3249;SDS011;1637;42.020;23.992;2023-02-02T03:42:47;7.47;;;4.53;;
3249;SDS011;1637;42.020;23.992;2023-02-02T03:45:14;26.87;;;11.60;;
3249;SDS011;1637;42.020;23.992;2023-02-02T03:47:42;29.50;;;12.60;;
3249;SDS011;1637;42.020;23.992;2023-02-02T03:50:09;23.50;;;10.43;;
3249;SDS011;1637;42.020;23.992;2023-02-02T03:52:37;32.80;;;11.20;;
3249;SDS011;1637;42.020;23.992;2023-02-02T03:55:04;24.73;;;12.40;;
3249;SDS011;1637;42.020;23.992;2023-02-02T03:57:32;36.60;;;15.10;;
3249;SDS011;1637;42.020;23.992;2023-02-02T03:59:59;54.73;;;22.10;;
3249;SDS011;1637;42.020;23.992;2023-02-02T04:02:25;47.23;;;20.73;;
3249;SDS011;1637;42.020;23.992;2023-02-02T04:04:52;33.03;;;13.40;;
3249;SDS011;1637;42.020;23.992;2023-02-02T04:07:19;20.20;;;11.00;;
3249;SDS011;1637;42.020;23.992;2023-02-02T04:09:47;37.03;;;16.60;;
3249;SDS011;1637;42.020;23.992;2023-02-02T04:12:14;28.73;;;14.20;;
3249;SDS011;1637;42.020;23.992;2023-02-02T04:14:41;28.27;;;12.27;;
3249;SDS011;1637;42.020;23.992;2023-02-02T04:17:07;26.90;;;11.50;;
3249;SDS011;1637;42.020;23.992;2023-02-02T04:19:35;26.93;;;11.30;;
3249;SDS011;1637;42.020;23.992;2023-02-02T04:22:02;31.73;;;12.80;;
3249;SDS011;1637;42.020;23.992;2023-02-02T04:24:29;48.83;;;21.27;;
3249;SDS011;1637;42.020;23.992;2023-02-02T04:26:57;72.93;;;28.70;;
3249;SDS011;1637;42.020;23.992;2023-02-02T04:29:24;41.80;;;20.70;;
3249;SDS011;1637;42.020;23.992;2023-02-02T04:31:50;60.87;;;24.63;;
3249;SDS011;1637;42.020;23.992;2023-02-02T04:34:17;55.27;;;24.13;;
3249;SDS011;1637;42.020;23.992;2023-02-02T04:36:44;49.27;;;20.50;;
3249;SDS011;1637;42.020;23.992;2023-02-02T04:39:11;42.73;;;19.87;;
3249;SDS011;1637;42.020;23.992;2023-02-02T04:41:37;45.23;;;19.00;;
3249;SDS011;1637;42.020;23.992;2023-02-02T04:44:09;50.40;;;17.33;;
3249;SDS011;1637;42.020;23.992;2023-02-02T04:46:39;55.30;;;18.37;;
3249;SDS011;1637;42.020;23.992;2023-02-02T04:49:07;49.37;;;17.77;;
3249;SDS011;1637;42.020;23.992;2023-02-02T04:51:34;59.07;;;19.90;;
3249;SDS011;1637;42.020;23.992;2023-02-02T04:54:01;86.57;;;30.33;;
3249;SDS011;1637;42.020;23.992;2023-02-02T04:56:28;67.33;;;23.37;;
3249;SDS011;1637;42.020;23.992;2023-02-02T04:58:55;91.73;;;32.00;;
3249;SDS011;1637;42.020;23.992;2023-02-02T05:01:23;140.30;;;49.87;;
3249;SDS011;1637;42.020;23.992;2023-02-02T05:03:50;130.63;;;41.90;;
3249;SDS011;1637;42.020;23.992;2023-02-02T05:06:17;42.13;;;15.87;;
3249;SDS011;1637;42.020;23.992;2023-02-02T05:08:44;54.73;;;20.40;;
3249;SDS011;1637;42.020;23.992;2023-02-02T05:11:13;197.47;;;62.67;;
3249;SDS011;1637;42.020;23.992;2023-02-02T05:13:43;162.90;;;60.07;;
3249;SDS011;1637;42.020;23.992;2023-02-02T05:16:11;123.17;;;40.10;;
3249;SDS011;1637;42.020;23.992;2023-02-02T05:18:39;102.33;;;37.00;;
3249;SDS011;1637;42.020;23.992;2023-02-02T05:21:06;113.50;;;41.80;;
3249;SDS011;1637;42.020;23.992;2023-02-02T05:23:33;110.37;;;39.90;;
3249;SDS011;1637;42.020;23.992;2023-02-02T05:26:00;110.87;;;35.53;;
3249;SDS011;1637;42.020;23.992;2023-02-02T05:28:27;68.47;;;30.13;;
3249;SDS011;1637;42.020;23.992;2023-02-02T05:30:54;69.90;;;33.27;;
3249;SDS011;1637;42.020;23.992;2023-02-02T05:33:21;62.53;;;27.87;;
3249;SDS011;1637;42.020;23.992;2023-02-02T05:35:49;90.73;;;36.00;;
3249;SDS011;1637;42.020;23.992;2023-02-02T05:38:16;80.07;;;30.30;;
3249;SDS011;1637;42.020;23.992;2023-02-02T05:40:43;89.10;;;41.67;;
3249;SDS011;1637;42.020;23.992;2023-02-02T05:43:10;132.00;;;52.50;;
3249;SDS011;1637;42.020;23.992;2023-02-02T05:45:37;70.53;;;30.70;;
3249;SDS011;1637;42.020;23.992;2023-02-02T05:48:03;60.00;;;26.57;;
3249;SDS011;1637;42.020;23.992;2023-02-02T05:50:30;76.80;;;31.50;;
3249;SDS011;1637;42.020;23.992;2023-02-02T05:52:59;71.43;;;29.33;;
3249;SDS011;1637;42.020;23.992;2023-02-02T05:55:25;59.60;;;25.30;;
3249;SDS011;1637;42.020;23.992;2023-02-02T05:57:52;90.43;;;37.53;;
3249;SDS011;1637;42.020;23.992;2023-02-02T06:00:20;76.77;;;30.77;;
3249;SDS011;1637;42.020;23.992;2023-02-02T06:02:47;67.67;;;32.40;;
3249;SDS011;1637;42.020;23.992;2023-02-02T06:05:14;317.67;;;99.67;;
3249;SDS011;1637;42.020;23.992;2023-02-02T06:07:41;163.30;;;61.67;;
3249;SDS011;1637;42.020;23.992;2023-02-02T06:10:09;98.37;;;39.53;;
3249;SDS011;1637;42.020;23.992;2023-02-02T06:12:36;76.37;;;32.37;;
3249;SDS011;1637;42.020;23.992;2023-02-02T06:15:03;103.53;;;45.70;;
3249;SDS011;1637;42.020;23.992;2023-02-02T06:17:31;86.30;;;36.30;;
3249;SDS011;1637;42.020;23.992;2023-02-02T06:19:58;75.63;;;32.47;;
3249;SDS011;1637;42.020;23.992;2023-02-02T06:22:24;132.07;;;49.20;;
3249;SDS011;1637;42.020;23.992;2023-02-02T06:24:51;136.10;;;47.87;;
3249;SDS011;1637;42.020;23.992;2023-02-02T06:27:20;125.30;;;51.83;;
3249;SDS011;1637;42.020;23.992;2023-02-02T06:29:46;184.13;;;76.70;;
3249;SDS011;1637;42.020;23.992;2023-02-02T06:32:13;160.53;;;65.37;;
3249;SDS011;1637;42.020;23.992;2023-02-02T06:34:40;178.80;;;69.37;;
3249;SDS011;1637;42.020;23.992;2023-02-02T06:37:07;167.97;;;66.13;;
3249;SDS011;1637;42.020;23.992;2023-02-02T06:39:34;142.83;;;55.20;;
3249;SDS011;1637;42.020;23.992;2023-02-02T06:42:00;158.07;;;67.20;;
3249;SDS011;1637;42.020;23.992;2023-02-02T06:44:29;151.97;;;68.33;;
3249;SDS011;1637;42.020;23.992;2023-02-02T06:46:55;378.00;;;177.43;;
3249;SDS011;1637;42.020;23.992;2023-02-02T06:49:22;96.90;;;48.37;;
3249;SDS011;1637;42.020;23.992;2023-02-02T06:51:49;76.63;;;37.10;;
3249;SDS011;1637;42.020;23.992;2023-02-02T06:54:16;36.10;;;15.83;;
3249;SDS011;1637;42.020;23.992;2023-02-02T06:56:42;61.63;;;26.53;;
3249;SDS011;1637;42.020;23.992;2023-02-02T06:59:09;84.10;;;34.57;;
3249;SDS011;1637;42.020;23.992;2023-02-02T07:01:38;62.37;;;28.47;;
3249;SDS011;1637;42.020;23.992;2023-02-02T07:04:04;30.50;;;14.20;;
3249;SDS011;1637;42.020;23.992;2023-02-02T07:06:31;20.80;;;12.33;;
3249;SDS011;1637;42.020;23.992;2023-02-02T07:08:58;63.43;;;12.00;;
3249;SDS011;1637;42.020;23.992;2023-02-02T07:11:25;26.17;;;12.50;;
3249;SDS011;1637;42.020;23.992;2023-02-02T07:13:52;47.23;;;23.50;;
3249;SDS011;1637;42.020;23.992;2023-02-02T07:16:19;20.23;;;12.17;;
3249;SDS011;1637;42.020;23.992;2023-02-02T07:18:47;31.37;;;17.90;;
3249;SDS011;1637;42.020;23.992;2023-02-02T07:21:15;49.50;;;24.97;;
3249;SDS011;1637;42.020;23.992;2023-02-02T07:23:43;38.10;;;22.40;;
3249;SDS011;1637;42.020;23.992;2023-02-02T07:26:10;47.70;;;24.20;;
3249;SDS011;1637;42.020;23.992;2023-02-02T07:28:38;68.63;;;37.03;;
3249;SDS011;1637;42.020;23.992;2023-02-02T07:31:12;45.50;;;24.90;;
3249;SDS011;1637;42.020;23.992;2023-02-02T07:33:40;46.33;;;25.03;;
3249;SDS011;1637;42.020;23.992;2023-02-02T07:36:09;67.10;;;39.93;;
3249;SDS011;1637;42.020;23.992;2023-02-02T07:38:36;68.93;;;35.57;;
3249;SDS011;1637;42.020;23.992;2023-02-02T07:41:03;66.87;;;33.00;;
3249;SDS011;1637;42.020;23.992;2023-02-02T07:43:30;46.97;;;28.40;;
3249;SDS011;1637;42.020;23.992;2023-02-02T07:45:58;45.23;;;26.30;;
3249;SDS011;1637;42.020;23.992;2023-02-02T07:48:27;32.47;;;18.97;;
3249;SDS011;1637;42.020;23.992;2023-02-02T07:50:57;37.73;;;18.03;;
3249;SDS011;1637;42.020;23.992;2023-02-02T07:53:26;76.10;;;35.47;;
3249;SDS011;1637;42.020;23.992;2023-02-02T07:55:53;62.23;;;31.70;;
3249;SDS011;1637;42.020;23.992;2023-02-02T07:58:20;30.87;;;16.17;;
3249;SDS011;1637;42.020;23.992;2023-02-02T08:00:46;89.70;;;37.70;;
3249;SDS011;1637;42.020;23.992;2023-02-02T08:03:13;73.67;;;25.73;;
3249;SDS011;1637;42.020;23.992;2023-02-02T08:05:40;52.00;;;23.67;;
3249;SDS011;1637;42.020;23.992;2023-02-02T08:08:06;32.33;;;18.50;;
3249;SDS011;1637;42.020;23.992;2023-02-02T08:10:35;46.23;;;23.40;;
3249;SDS011;1637;42.020;23.992;2023-02-02T08:13:01;36.37;;;19.23;;
3249;SDS011;1637;42.020;23.992;2023-02-02T08:15:28;34.23;;;18.07;;
3249;SDS011;1637;42.020;23.992;2023-02-02T08:17:55;37.90;;;21.67;;
3249;SDS011;1637;42.020;23.992;2023-02-02T08:20:23;44.97;;;23.77;;
3249;SDS011;1637;42.020;23.992;2023-02-02T08:22:50;35.43;;;19.30;;
3249;SDS011;1637;42.020;23.992;2023-02-02T08:25:16;48.20;;;18.00;;
3249;SDS011;1637;42.020;23.992;2023-02-02T08:27:44;38.03;;;19.93;;
3249;SDS011;1637;42.020;23.992;2023-02-02T08:30:11;33.37;;;23.17;;
3249;SDS011;1637;42.020;23.992;2023-02-02T08:32:38;45.00;;;24.37;;
3249;SDS011;1637;42.020;23.992;2023-02-02T08:35:05;25.13;;;13.00;;
3249;SDS011;1637;42.020;23.992;2023-02-02T08:37:33;14.33;;;6.93;;
3249;SDS011;1637;42.020;23.992;2023-02-02T08:39:59;49.60;;;25.97;;
3249;SDS011;1637;42.020;23.992;2023-02-02T08:42:26;28.10;;;13.83;;
3249;SDS011;1637;42.020;23.992;2023-02-02T08:44:54;14.60;;;8.20;;
3249;SDS011;1637;42.020;23.992;2023-02-02T08:47:21;36.43;;;13.90;;
3249;SDS011;1637;42.020;23.992;2023-02-02T08:49:48;13.90;;;9.20;;
3249;SDS011;1637;42.020;23.992;2023-02-02T08:52:15;19.47;;;9.00;;
3249;SDS011;1637;42.020;23.992;2023-02-02T08:54:42;23.37;;;11.10;;
3249;SDS011;1637;42.020;23.992;2023-02-02T08:57:09;18.50;;;10.80;;
3249;SDS011;1637;42.020;23.992;2023-02-02T08:59:35;30.53;;;18.17;;
3249;SDS011;1637;42.020;23.992;2023-02-02T09:02:04;29.97;;;14.00;;
3249;SDS011;1637;42.020;23.992;2023-02-02T09:04:30;31.10;;;13.23;;
3249;SDS011;1637;42.020;23.992;2023-02-02T09:06:57;29.30;;;14.90;;
3249;SDS011;1637;42.020;23.992;2023-02-02T09:09:24;54.20;;;24.43;;
3249;SDS011;1637;42.020;23.992;2023-02-02T09:11:51;41.47;;;18.70;;
3249;SDS011;1637;42.020;23.992;2023-02-02T09:14:18;28.43;;;13.93;;
3249;SDS011;1637;42.020;23.992;2023-02-02T09:16:44;32.43;;;12.20;;
3249;SDS011;1637;42.020;23.992;2023-02-02T09:19:13;23.57;;;14.13;;
3249;SDS011;1637;42.020;23.992;2023-02-02T09:21:39;47.27;;;15.37;;
3249;SDS011;1637;42.020;23.992;2023-02-02T09:24:07;36.77;;;18.27;;
3249;SDS011;1637;42.020;23.992;2023-02-02T09:26:34;45.23;;;11.20;;
3249;SDS011;1637;42.020;23.992;2023-02-02T09:29:03;22.47;;;6.60;;
3249;SDS011;1637;42.020;23.992;2023-02-02T09:31:31;17.17;;;8.83;;
3249;SDS011;1637;42.020;23.992;2023-02-02T09:34:00;12.80;;;6.23;;
3249;SDS011;1637;42.020;23.992;2023-02-02T09:36:28;30.03;;;8.90;;
3249;SDS011;1637;42.020;23.992;2023-02-02T09:38:55;10.27;;;4.23;;
3249;SDS011;1637;42.020;23.992;2023-02-02T09:47:21;9.57;;;3.47;;
3249;SDS011;1637;42.020;23.992;2023-02-02T09:49:55;25.93;;;5.93;;
3249;SDS011;1637;42.020;23.992;2023-02-02T09:52:29;19.43;;;10.13;;
3249;SDS011;1637;42.020;23.992;2023-02-02T09:55:01;4.37;;;2.30;;
3249;SDS011;1637;42.020;23.992;2023-02-02T09:57:34;12.30;;;4.53;;
3249;SDS011;1637;42.020;23.992;2023-02-02T10:00:05;15.60;;;5.13;;
3249;SDS011;1637;42.020;23.992;2023-02-02T10:02:45;36.00;;;6.33;;
3249;SDS011;1637;42.020;23.992;2023-02-02T10:05:14;32.23;;;13.40;;
3249;SDS011;1637;42.020;23.992;2023-02-02T10:07:50;16.30;;;7.50;;
3249;SDS011;1637;42.020;23.992;2023-02-02T10:10:22;28.43;;;4.93;;
3249;SDS011;1637;42.020;23.992;2023-02-02T10:12:55;37.10;;;10.07;;
3249;SDS011;1637;42.020;23.992;2023-02-02T10:15:28;39.77;;;14.43;;
3249;SDS011;1637;42.020;23.992;2023-02-02T10:18:03;18.90;;;8.37;;
3249;SDS011;1637;42.020;23.992;2023-02-02T10:20:39;35.70;;;14.60;;
3249;SDS011;1637;42.020;23.992;2023-02-02T10:23:17;6.60;;;4.00;;
3249;SDS011;1637;42.020;23.992;2023-02-02T10:25:51;16.87;;;3.80;;
3249;SDS011;1637;42.020;23.992;2023-02-02T10:28:25;14.50;;;6.87;;
3249;SDS011;1637;42.020;23.992;2023-02-02T10:31:03;7.70;;;3.03;;
3249;SDS011;1637;42.020;23.992;2023-02-02T10:33:37;18.50;;;4.53;;
3249;SDS011;1637;42.020;23.992;2023-02-02T10:36:07;10.37;;;4.33;;
3249;SDS011;1637;42.020;23.992;2023-02-02T10:38:48;12.87;;;7.33;;
3249;SDS011;1637;42.020;23.992;2023-02-02T10:41:22;9.30;;;4.70;;
3249;SDS011;1637;42.020;23.992;2023-02-02T10:44:01;20.97;;;7.20;;
3249;SDS011;1637;42.020;23.992;2023-02-02T10:46:42;11.63;;;5.80;;
3249;SDS011;1637;42.020;23.992;2023-02-02T10:49:23;28.07;;;11.63;;
3249;SDS011;1637;42.020;23.992;2023-02-02T10:51:56;22.20;;;10.30;;
3249;SDS011;1637;42.020;23.992;2023-02-02T10:54:39;29.13;;;12.43;;
3249;SDS011;1637;42.020;23.992;2023-02-02T10:57:13;14.60;;;6.23;;
3249;SDS011;1637;42.020;23.992;2023-02-02T10:59:45;9.67;;;3.30;;
3249;SDS011;1637;42.020;23.992;2023-02-02T11:02:23;12.40;;;4.60;;
3249;SDS011;1637;42.020;23.992;2023-02-02T11:04:50;16.53;;;4.40;;
3249;SDS011;1637;42.020;23.992;2023-02-02T11:07:35;5.40;;;2.00;;
3249;SDS011;1637;42.020;23.992;2023-02-02T11:10:03;9.90;;;3.77;;
3249;SDS011;1637;42.020;23.992;2023-02-02T11:12:31;5.90;;;1.23;;
3249;SDS011;1637;42.020;23.992;2023-02-02T11:15:00;6.87;;;2.03;;
3249;SDS011;1637;42.020;23.992;2023-02-02T11:17:29;11.07;;;4.03;;
3249;SDS011;1637;42.020;23.992;2023-02-02T11:19:56;15.00;;;4.00;;
3249;SDS011;1637;42.020;23.992;2023-02-02T11:22:27;10.90;;;5.13;;
3249;SDS011;1637;42.020;23.992;2023-02-02T11:24:58;23.17;;;9.47;;
3249;SDS011;1637;42.020;23.992;2023-02-02T11:27:28;16.80;;;7.40;;
3249;SDS011;1637;42.020;23.992;2023-02-02T11:29:58;31.00;;;8.60;;
3249;SDS011;1637;42.020;23.992;2023-02-02T11:32:33;14.70;;;6.50;;
3249;SDS011;1637;42.020;23.992;2023-02-02T11:35:15;24.90;;;6.50;;
3249;SDS011;1637;42.020;23.992;2023-02-02T11:37:52;32.33;;;4.33;;
3249;SDS011;1637;42.020;23.992;2023-02-02T11:40:32;53.40;;;9.00;;
3249;SDS011;1637;42.020;23.992;2023-02-02T11:43:04;6.70;;;3.07;;
3249;SDS011;1637;42.020;23.992;2023-02-02T11:45:39;12.63;;;3.30;;
3249;SDS011;1637;42.020;23.992;2023-02-02T11:48:11;9.00;;;2.90;;
3249;SDS011;1637;42.020;23.992;2023-02-02T11:50:44;11.20;;;5.73;;
3249;SDS011;1637;42.020;23.992;2023-02-02T11:53:19;51.97;;;18.33;;
3249;SDS011;1637;42.020;23.992;2023-02-02T11:55:48;24.30;;;9.87;;
3249;SDS011;1637;42.020;23.992;2023-02-02T11:58:22;60.50;;;16.20;;
3249;SDS011;1637;42.020;23.992;2023-02-02T12:00:52;63.47;;;26.30;;
3249;SDS011;1637;42.020;23.992;2023-02-02T12:03:22;38.23;;;11.90;;
3249;SDS011;1637;42.020;23.992;2023-02-02T12:05:58;56.83;;;10.30;;
3249;SDS011;1637;42.020;23.992;2023-02-02T12:08:28;23.37;;;7.30;;
3249;SDS011;1637;42.020;23.992;2023-02-02T12:10:56;52.63;;;11.53;;
3249;SDS011;1637;42.020;23.992;2023-02-02T12:13:31;51.13;;;15.30;;
3249;SDS011;1637;42.020;23.992;2023-02-02T12:16:10;6.50;;;1.73;;
3249;SDS011;1637;42.020;23.992;2023-02-02T12:18:51;18.63;;;5.43;;
3249;SDS011;1637;42.020;23.992;2023-02-02T12:21:28;22.57;;;5.47;;
3249;SDS011;1637;42.020;23.992;2023-02-02T12:24:09;87.50;;;30.33;;
3249;SDS011;1637;42.020;23.992;2023-02-02T12:26:51;14.60;;;5.17;;
3249;SDS011;1637;42.020;23.992;2023-02-02T12:29:36;5.30;;;2.33;;
3249;SDS011;1637;42.020;23.992;2023-02-02T12:32:24;15.57;;;5.17;;
3249;SDS011;1637;42.020;23.992;2023-02-02T12:35:02;39.53;;;9.37;;
3249;SDS011;1637;42.020;23.992;2023-02-02T12:37:47;18.73;;;6.73;;
3249;SDS011;1637;42.020;23.992;2023-02-02T12:40:31;1.93;;;1.13;;
3249;SDS011;1637;42.020;23.992;2023-02-02T12:43:11;73.83;;;19.53;;
3249;SDS011;1637;42.020;23.992;2023-02-02T12:45:53;4.13;;;1.77;;
3249;SDS011;1637;42.020;23.992;2023-02-02T12:48:33;71.27;;;27.13;;
3249;SDS011;1637;42.020;23.992;2023-02-02T12:51:16;67.80;;;18.63;;
3249;SDS011;1637;42.020;23.992;2023-02-02T12:54:04;10.00;;;2.73;;
3249;SDS011;1637;42.020;23.992;2023-02-02T12:56:50;30.93;;;12.50;;
3249;SDS011;1637;42.020;23.992;2023-02-02T12:59:26;43.73;;;14.17;;
3249;SDS011;1637;42.020;23.992;2023-02-02T13:02:03;14.47;;;5.07;;
3249;SDS011;1637;42.020;23.992;2023-02-02T13:04:48;37.53;;;13.97;;
3249;SDS011;1637;42.020;23.992;2023-02-02T13:07:30;6.33;;;2.93;;
3249;SDS011;1637;42.020;23.992;2023-02-02T13:10:07;28.97;;;10.10;;
3249;SDS011;1637;42.020;23.992;2023-02-02T13:12:41;53.23;;;18.40;;
3249;SDS011;1637;42.020;23.992;2023-02-02T13:15:12;2.60;;;1.83;;
3249;SDS011;1637;42.020;23.992;2023-02-02T13:17:46;4.37;;;2.50;;
3249;SDS011;1637;42.020;23.992;2023-02-02T13:20:22;13.70;;;6.00;;
3249;SDS011;1637;42.020;23.992;2023-02-02T13:22:56;13.87;;;6.97;;
3249;SDS011;1637;42.020;23.992;2023-02-02T13:25:26;14.97;;;7.77;;
3249;SDS011;1637;42.020;23.992;2023-02-02T13:27:57;9.60;;;4.70;;
3249;SDS011;1637;42.020;23.992;2023-02-02T13:30:29;14.40;;;6.20;;
3249;SDS011;1637;42.020;23.992;2023-02-02T13:33:01;17.10;;;5.07;;
3249;SDS011;1637;42.020;23.992;2023-02-02T13:35:37;12.17;;;6.00;;
3249;SDS011;1637;42.020;23.992;2023-02-02T13:38:12;12.60;;;3.90;;
3249;SDS011;1637;42.020;23.992;2023-02-02T13:40:44;14.70;;;6.00;;
3249;SDS011;1637;42.020;23.992;2023-02-02T13:43:25;16.97;;;10.07;;
3249;SDS011;1637;42.020;23.992;2023-02-02T13:45:59;36.50;;;10.13;;
3249;SDS011;1637;42.020;23.992;2023-02-02T13:48:34;74.37;;;10.67;;
3249;SDS011;1637;42.020;23.992;2023-02-02T13:51:21;38.40;;;12.77;;
3249;SDS011;1637;42.020;23.992;2023-02-02T13:54:16;5.03;;;2.80;;
3249;SDS011;1637;42.020;23.992;2023-02-02T13:57:10;21.53;;;8.80;;
3249;SDS011;1637;42.020;23.992;2023-02-02T13:59:50;26.87;;;7.27;;
3249;SDS011;1637;42.020;23.992;2023-02-02T14:02:27;12.70;;;5.80;;
3249;SDS011;1637;42.020;23.992;2023-02-02T14:04:59;22.10;;;7.63;;
3249;SDS011;1637;42.020;23.992;2023-02-02T14:07:31;33.50;;;14.57;;
3249;SDS011;1637;42.020;23.992;2023-02-02T14:10:03;46.97;;;15.83;;
3249;SDS011;1637;42.020;23.992;2023-02-02T14:12:32;26.33;;;10.93;;
3249;SDS011;1637;42.020;23.992;2023-02-02T14:15:00;14.80;;;6.07;;
3249;SDS011;1637;42.020;23.992;2023-02-02T14:20:40;12.57;;;6.60;;
3249;SDS011;1637;42.020;23.992;2023-02-02T14:26:16;13.80;;;6.97;;
3249;SDS011;1637;42.020;23.992;2023-02-02T14:28:46;28.60;;;11.40;;
3249;SDS011;1637;42.020;23.992;2023-02-02T14:31:16;27.23;;;6.13;;
3249;SDS011;1637;42.020;23.992;2023-02-02T14:34:07;40.50;;;10.10;;
3249;SDS011;1637;42.020;23.992;2023-02-02T14:36:45;16.00;;;5.90;;
3249;SDS011;1637;42.020;23.992;2023-02-02T14:39:19;8.30;;;2.60;;
3249;SDS011;1637;42.020;23.992;2023-02-02T14:45:17;19.60;;;8.90;;
3249;SDS011;1637;42.020;23.992;2023-02-02T14:47:51;33.33;;;12.57;;
3249;SDS011;1637;42.020;23.992;2023-02-02T14:50:27;69.50;;;12.33;;
3249;SDS011;1637;42.020;23.992;2023-02-02T14:53:03;43.27;;;16.33;;
3249;SDS011;1637;42.020;23.992;2023-02-02T14:55:34;35.67;;;16.60;;
3249;SDS011;1637;42.020;23.992;2023-02-02T14:58:18;56.37;;;24.77;;
3249;SDS011;1637;42.020;23.992;2023-02-02T15:00:54;28.63;;;10.23;;
3249;SDS011;1637;42.020;23.992;2023-02-02T15:03:33;90.07;;;42.17;;
3249;SDS011;1637;42.020;23.992;2023-02-02T15:06:29;28.90;;;8.50;;
3249;SDS011;1637;42.020;23.992;2023-02-02T15:15:04;54.23;;;15.20;;
3249;SDS011;1637;42.020;23.992;2023-02-02T15:17:41;23.57;;;12.60;;
3249;SDS011;1637;42.020;23.992;2023-02-02T15:20:18;8.63;;;4.07;;
3249;SDS011;1637;42.020;23.992;2023-02-02T15:22:52;19.23;;;9.60;;
3249;SDS011;1637;42.020;23.992;2023-02-02T15:25:23;44.50;;;23.40;;